createdAt,value
2022-12-25T00:00:04.698Z,1010.16
2022-12-25T00:01:04.652Z,1010.22
2022-12-25T00:02:04.560Z,1010.16
2022-12-25T00:03:04.598Z,1010.18
2022-12-25T00:04:04.567Z,1010.17
2022-12-25T00:05:04.446Z,1010.32
2022-12-25T00:06:04.387Z,1010.22
2022-12-25T00:07:04.347Z,1010.28
2022-12-25T00:08:04.304Z,1010.58
2022-12-25T00:09:04.268Z,1010.55
2022-12-25T00:10:04.220Z,1010.60
2022-12-25T00:11:04.198Z,1010.62
2022-12-25T00:12:04.142Z,1010.61
2022-12-25T00:13:04.106Z,1010.57
2022-12-25T00:14:04.055Z,1010.59
2022-12-25T00:15:04.021Z,1010.21
2022-12-25T00:16:04.026Z,1010.23
2022-12-25T00:17:03.945Z,1010.25
2022-12-25T00:18:03.886Z,1010.24
2022-12-25T00:19:03.849Z,1010.31
2022-12-25T00:20:03.800Z,1010.57
2022-12-25T00:21:03.800Z,1010.58
2022-12-25T00:22:03.736Z,1010.27
2022-12-25T00:23:03.693Z,1010.32
2022-12-25T00:24:03.659Z,1010.24
2022-12-25T00:25:03.591Z,1010.23
2022-12-25T00:26:03.559Z,1010.18
2022-12-25T00:27:03.515Z,1010.19
2022-12-25T00:28:03.462Z,1010.16
2022-12-25T00:29:03.443Z,1010.11
2022-12-25T00:30:03.385Z,1010.14
2022-12-25T00:31:03.402Z,1010.17
2022-12-25T00:32:03.307Z,1010.16
2022-12-25T00:33:03.262Z,1010.52
2022-12-25T00:34:03.220Z,1010.19
2022-12-25T00:35:03.191Z,1010.20
2022-12-25T00:36:03.131Z,1010.17
2022-12-25T00:37:03.091Z,1010.53
2022-12-25T00:38:03.042Z,1010.53
2022-12-25T00:39:03.007Z,1010.21
2022-12-25T00:40:02.960Z,1010.18
2022-12-25T00:41:02.936Z,1010.19
2022-12-25T00:42:02.877Z,1010.36
2022-12-25T00:43:02.837Z,1010.20
2022-12-25T00:44:02.793Z,1010.21
2022-12-25T00:45:02.758Z,1010.20
2022-12-25T00:46:02.765Z,1010.48
2022-12-25T00:47:02.721Z,1010.26
2022-12-25T00:48:02.628Z,1010.20
2022-12-25T00:49:02.595Z,1010.23
2022-12-25T00:50:02.547Z,1010.20
2022-12-25T00:51:02.503Z,1010.27
2022-12-25T00:52:02.459Z,1010.37
2022-12-25T00:53:02.427Z,1010.20
2022-12-25T00:54:02.378Z,1010.31
2022-12-25T00:55:02.400Z,1010.45
2022-12-25T00:56:02.291Z,1010.22
2022-12-25T00:57:02.252Z,1010.17
2022-12-25T00:58:02.209Z,1010.19
2022-12-25T00:59:02.194Z,1010.17
2022-12-25T01:00:02.137Z,1010.14
2022-12-25T01:01:02.105Z,1010.18
2022-12-25T01:02:02.135Z,1010.16
2022-12-25T01:03:02.136Z,1010.26
2022-12-25T01:04:01.959Z,1010.19
2022-12-25T01:05:01.934Z,1010.22
2022-12-25T01:06:01.876Z,1010.24
2022-12-25T01:07:01.840Z,1010.55
2022-12-25T01:08:01.788Z,1010.21
2022-12-25T01:09:01.760Z,1010.21
2022-12-25T01:10:01.706Z,1010.26
2022-12-25T01:11:01.751Z,1010.56
2022-12-25T01:12:01.624Z,1010.20
2022-12-25T01:13:01.582Z,1010.20
2022-12-25T01:14:01.553Z,1010.25
2022-12-25T01:15:01.505Z,1010.24
2022-12-25T01:16:01.501Z,1010.25
2022-12-25T01:17:01.456Z,1010.56
2022-12-25T01:18:07.284Z,1010.57
2022-12-25T01:19:01.340Z,1010.55
2022-12-25T01:20:01.310Z,1010.21
2022-12-25T01:21:01.248Z,1010.25
2022-12-25T01:22:01.203Z,1010.23
2022-12-25T01:23:01.178Z,1010.56
2022-12-25T01:24:01.125Z,1010.58
2022-12-25T01:25:01.102Z,1010.56
2022-12-25T01:26:01.036Z,1010.24
2022-12-25T01:27:00.997Z,1010.58
2022-12-25T01:28:00.957Z,1010.27
2022-12-25T01:29:00.931Z,1010.39
2022-12-25T01:30:00.870Z,1010.25
2022-12-25T01:31:00.842Z,1010.56
2022-12-25T01:32:00.826Z,1010.54
2022-12-25T01:33:00.750Z,1010.23
2022-12-25T01:34:00.707Z,1010.11
2022-12-25T01:35:00.674Z,1010.09
2022-12-25T01:36:00.631Z,1010.10
2022-12-25T01:37:00.592Z,1010.14
2022-12-25T01:38:00.535Z,1010.10
2022-12-25T01:39:00.502Z,1010.41
2022-12-25T01:40:00.459Z,1010.10
2022-12-25T01:41:00.413Z,1010.45
2022-12-25T01:42:00.385Z,1010.11
2022-12-25T01:43:00.372Z,1010.10
2022-12-25T01:44:00.337Z,1010.40
2022-12-25T01:45:00.256Z,1010.39
2022-12-25T01:46:00.380Z,1010.20
2022-12-25T01:47:00.165Z,1010.40
2022-12-25T01:48:00.133Z,1010.37
2022-12-25T01:49:00.117Z,1010.33
2022-12-25T01:50:00.097Z,1009.97
2022-12-25T01:51:00.002Z,1010.29
2022-12-25T01:51:59.953Z,1009.99
2022-12-25T01:52:59.915Z,1009.97
2022-12-25T01:53:59.879Z,1010.02
2022-12-25T01:54:59.830Z,1010.02
2022-12-25T01:55:59.791Z,1010.02
2022-12-25T01:56:59.754Z,1010.09
2022-12-25T01:57:59.705Z,1010.05
2022-12-25T01:58:59.669Z,1010.10
2022-12-25T01:59:59.640Z,1010.51
2022-12-25T02:00:59.618Z,1010.13
2022-12-25T02:01:59.683Z,1010.46
2022-12-25T02:02:59.630Z,1010.14
2022-12-25T02:03:59.469Z,1010.08
2022-12-25T02:04:59.420Z,1010.08
2022-12-25T02:05:59.393Z,1010.11
2022-12-25T02:06:59.345Z,1010.14
2022-12-25T02:07:59.293Z,1010.14
2022-12-25T02:08:59.253Z,1010.19
2022-12-25T02:09:59.214Z,1010.46
2022-12-25T02:10:59.179Z,1010.56
2022-12-25T02:11:59.128Z,1010.24
2022-12-25T02:12:59.098Z,1010.24
2022-12-25T02:13:59.034Z,1010.29
2022-12-25T02:15:04.985Z,1010.62
2022-12-25T02:15:58.955Z,1010.43
2022-12-25T02:16:59.117Z,1010.40
2022-12-25T02:17:58.871Z,1010.32
2022-12-25T02:18:58.843Z,1010.68
2022-12-25T02:19:58.788Z,1010.36
2022-12-25T02:20:58.760Z,1010.31
2022-12-25T02:21:58.723Z,1010.34
2022-12-25T02:22:58.678Z,1010.68
2022-12-25T02:23:58.623Z,1010.42
2022-12-25T02:24:58.604Z,1010.66
2022-12-25T02:25:58.542Z,1010.30
2022-12-25T02:26:58.502Z,1010.30
2022-12-25T02:27:58.462Z,1010.26
2022-12-25T02:28:58.432Z,1010.62
2022-12-25T02:29:58.386Z,1010.43
2022-12-25T02:30:58.333Z,1010.46
2022-12-25T02:31:58.328Z,1010.33
2022-12-25T02:32:58.251Z,1010.31
2022-12-25T02:33:58.207Z,1010.37
2022-12-25T02:34:58.186Z,1010.35
2022-12-25T02:35:58.131Z,1010.39
2022-12-25T02:36:58.102Z,1010.75
2022-12-25T02:37:58.044Z,1010.72
2022-12-25T02:38:58.029Z,1010.41
2022-12-25T02:39:57.978Z,1010.74
2022-12-25T02:40:57.949Z,1010.39
2022-12-25T02:41:57.875Z,1010.34
2022-12-25T02:42:57.867Z,1010.37
2022-12-25T02:43:57.820Z,1010.34
2022-12-25T02:44:57.784Z,1010.68
2022-12-25T02:45:57.781Z,1010.70
2022-12-25T02:46:57.701Z,1010.65
2022-12-25T02:47:57.636Z,1010.74
2022-12-25T02:48:57.593Z,1010.39
2022-12-25T02:49:57.545Z,1010.40
2022-12-25T02:50:57.541Z,1010.71
2022-12-25T02:51:57.460Z,1010.67
2022-12-25T02:52:57.435Z,1010.64
2022-12-25T02:53:57.387Z,1010.61
2022-12-25T02:54:57.354Z,1010.32
2022-12-25T02:55:57.310Z,1010.59
2022-12-25T02:56:57.268Z,1010.22
2022-12-25T02:57:57.215Z,1010.31
2022-12-25T02:58:57.207Z,1010.26
2022-12-25T02:59:57.144Z,1010.53
2022-12-25T03:00:57.152Z,1010.23
2022-12-25T03:01:57.228Z,1010.55
2022-12-25T03:02:57.058Z,1010.31
2022-12-25T03:03:56.979Z,1010.21
2022-12-25T03:04:56.927Z,1010.20
2022-12-25T03:05:56.890Z,1010.19
2022-12-25T03:06:56.844Z,1010.22
2022-12-25T03:07:56.799Z,1010.52
2022-12-25T03:08:56.765Z,1010.20
2022-12-25T03:09:56.745Z,1010.21
2022-12-25T03:10:56.680Z,1010.54
2022-12-25T03:11:56.646Z,1010.53
2022-12-25T03:12:56.605Z,1010.51
2022-12-25T03:13:56.558Z,1010.13
2022-12-25T03:14:56.532Z,1010.18
2022-12-25T03:15:56.486Z,1010.46
2022-12-25T03:16:56.529Z,1010.12
2022-12-25T03:17:56.389Z,1010.38
2022-12-25T03:18:56.351Z,1010.44
2022-12-25T03:19:56.312Z,1010.07
2022-12-25T03:20:56.291Z,1010.09
2022-12-25T03:21:56.224Z,1010.05
2022-12-25T03:22:56.189Z,1010.02
2022-12-25T03:23:56.145Z,1010.06
2022-12-25T03:24:56.104Z,1010.33
2022-12-25T03:25:56.061Z,1009.98
2022-12-25T03:26:56.036Z,1010.32
2022-12-25T03:27:55.977Z,1010.09
2022-12-25T03:28:55.959Z,1010.03
2022-12-25T03:29:55.898Z,1010.02
2022-12-25T03:30:55.948Z,1010.00
2022-12-25T03:32:05.303Z,1009.99
2022-12-25T03:32:55.779Z,1010.33
2022-12-25T03:33:55.738Z,1009.96
2022-12-25T03:34:55.690Z,1009.97
2022-12-25T03:35:55.646Z,1009.99
2022-12-25T03:36:55.610Z,1009.92
2022-12-25T03:37:55.563Z,1009.92
2022-12-25T03:38:55.538Z,1009.89
2022-12-25T03:39:55.482Z,1009.87
2022-12-25T03:40:55.446Z,1009.82
2022-12-25T03:41:55.400Z,1009.90
2022-12-25T03:42:55.362Z,1009.80
2022-12-25T03:43:55.317Z,1010.10
2022-12-25T03:44:55.294Z,1009.71
2022-12-25T03:45:55.291Z,1010.06
2022-12-25T03:46:55.197Z,1009.71
2022-12-25T03:47:55.152Z,1009.70
2022-12-25T03:48:55.124Z,1010.01
2022-12-25T03:49:55.072Z,1009.70
2022-12-25T03:50:55.052Z,1010.06
2022-12-25T03:51:54.986Z,1010.01
2022-12-25T03:52:54.948Z,1009.63
2022-12-25T03:53:54.902Z,1009.55
2022-12-25T03:54:54.872Z,1009.49
2022-12-25T03:55:54.836Z,1009.47
2022-12-25T03:56:54.796Z,1009.38
2022-12-25T03:57:54.741Z,1009.70
2022-12-25T03:58:54.705Z,1009.69
2022-12-25T03:59:54.659Z,1009.76
2022-12-25T04:00:54.626Z,1009.43
2022-12-25T04:01:54.652Z,1009.42
2022-12-25T04:02:54.629Z,1009.78
2022-12-25T04:03:54.493Z,1009.42
2022-12-25T04:04:54.454Z,1009.45
2022-12-25T04:05:54.414Z,1009.44
2022-12-25T04:06:54.370Z,1009.44
2022-12-25T04:07:54.329Z,1009.42
2022-12-25T04:08:54.296Z,1009.44
2022-12-25T04:09:54.250Z,1009.51
2022-12-25T04:10:54.204Z,1009.53
2022-12-25T04:12:00.491Z,1009.59
2022-12-25T04:12:54.123Z,1009.68
2022-12-25T04:13:54.084Z,1009.71
2022-12-25T04:14:54.048Z,1009.74
2022-12-25T04:15:54.061Z,1009.75
2022-12-25T04:16:53.962Z,1009.72
2022-12-25T04:17:53.919Z,1009.69
2022-12-25T04:18:53.879Z,1009.71
2022-12-25T04:19:53.848Z,1009.69
2022-12-25T04:20:53.811Z,1009.99
2022-12-25T04:21:53.754Z,1009.61
2022-12-25T04:22:53.713Z,1009.97
2022-12-25T04:23:53.671Z,1009.97
2022-12-25T04:24:53.631Z,1009.95
2022-12-25T04:25:53.585Z,1009.59
2022-12-25T04:26:53.558Z,1009.59
2022-12-25T04:27:53.501Z,1009.55
2022-12-25T04:28:53.469Z,1009.53
2022-12-25T04:29:53.423Z,1009.51
2022-12-25T04:30:53.436Z,1009.89
2022-12-25T04:31:53.350Z,1009.60
2022-12-25T04:32:53.297Z,1009.93
2022-12-25T04:33:53.284Z,1009.60
2022-12-25T04:34:53.226Z,1009.64
2022-12-25T04:35:53.236Z,1009.58
2022-12-25T04:36:53.147Z,1009.94
2022-12-25T04:37:53.104Z,1009.61
2022-12-25T04:38:53.061Z,1009.66
2022-12-25T04:39:53.020Z,1009.65
2022-12-25T04:40:52.969Z,1009.63
2022-12-25T04:41:52.935Z,1009.62
2022-12-25T04:42:52.884Z,1009.62
2022-12-25T04:43:52.847Z,1009.91
2022-12-25T04:44:52.815Z,1009.58
2022-12-25T04:45:52.764Z,1009.84
2022-12-25T04:46:52.815Z,1009.85
2022-12-25T04:47:52.684Z,1009.46
2022-12-25T04:48:52.666Z,1009.47
2022-12-25T04:49:52.596Z,1009.75
2022-12-25T04:50:52.566Z,1009.73
2022-12-25T04:51:52.514Z,1009.39
2022-12-25T04:52:52.489Z,1009.45
2022-12-25T04:53:52.452Z,1009.77
2022-12-25T04:54:52.388Z,1009.43
2022-12-25T04:55:52.360Z,1009.39
2022-12-25T04:56:52.312Z,1009.74
2022-12-25T04:57:52.266Z,1009.77
2022-12-25T04:58:52.225Z,1009.77
2022-12-25T04:59:52.185Z,1009.46
2022-12-25T05:00:52.159Z,1009.66
2022-12-25T05:01:52.176Z,1009.44
2022-12-25T05:02:52.201Z,1009.44
2022-12-25T05:03:52.124Z,1009.47
2022-12-25T05:04:51.976Z,1009.41
2022-12-25T05:05:51.939Z,1009.41
2022-12-25T05:06:51.908Z,1009.44
2022-12-25T05:07:51.854Z,1009.41
2022-12-25T05:08:51.823Z,1009.38
2022-12-25T05:09:51.770Z,1009.72
2022-12-25T05:10:51.733Z,1009.77
2022-12-25T05:11:51.691Z,1009.78
2022-12-25T05:12:51.657Z,1009.67
2022-12-25T05:13:51.613Z,1009.44
2022-12-25T05:14:51.568Z,1009.41
2022-12-25T05:15:51.555Z,1009.39
2022-12-25T05:16:51.481Z,1009.43
2022-12-25T05:17:51.444Z,1009.38
2022-12-25T05:18:51.410Z,1009.39
2022-12-25T05:19:51.362Z,1009.38
2022-12-25T05:20:51.316Z,1009.35
2022-12-25T05:21:51.282Z,1009.35
2022-12-25T05:22:51.232Z,1009.69
2022-12-25T05:23:51.208Z,1009.40
2022-12-25T05:24:51.165Z,1009.28
2022-12-25T05:25:51.117Z,1009.26
2022-12-25T05:26:51.067Z,1009.26
2022-12-25T05:27:53.990Z,1009.25
2022-12-25T05:28:50.987Z,1009.24
2022-12-25T05:29:50.948Z,1009.15
2022-12-25T05:30:50.921Z,1009.12
2022-12-25T05:31:50.900Z,1009.11
2022-12-25T05:32:50.871Z,1009.12
2022-12-25T05:33:50.788Z,1009.11
2022-12-25T05:34:50.742Z,1009.09
2022-12-25T05:35:50.720Z,1009.11
2022-12-25T05:36:50.662Z,1009.14
2022-12-25T05:37:50.630Z,1009.00
2022-12-25T05:38:50.567Z,1009.04
2022-12-25T05:39:50.536Z,1008.96
2022-12-25T05:40:50.493Z,1008.99
2022-12-25T05:41:50.466Z,1009.27
2022-12-25T05:42:50.415Z,1008.96
2022-12-25T05:43:50.375Z,1008.96
2022-12-25T05:44:50.324Z,1009.00
2022-12-25T05:45:50.298Z,1008.96
2022-12-25T05:46:50.293Z,1009.10
2022-12-25T05:47:50.220Z,1008.98
2022-12-25T05:48:50.157Z,1009.22
2022-12-25T05:49:50.123Z,1009.35
2022-12-25T05:50:50.076Z,1009.33
2022-12-25T05:51:50.042Z,1009.33
2022-12-25T05:52:50.004Z,1008.95
2022-12-25T05:53:49.992Z,1009.32
2022-12-25T05:54:49.913Z,1009.33
2022-12-25T05:55:49.877Z,1009.01
2022-12-25T05:56:49.837Z,1009.38
2022-12-25T05:57:49.803Z,1009.43
2022-12-25T05:58:49.745Z,1009.11
2022-12-25T05:59:49.718Z,1009.08
2022-12-25T06:00:49.665Z,1009.06
2022-12-25T06:01:49.741Z,1009.05
2022-12-25T06:02:49.658Z,1009.09
2022-12-25T06:03:49.571Z,1009.38
2022-12-25T06:04:49.516Z,1009.06
2022-12-25T06:05:49.465Z,1009.38
2022-12-25T06:06:49.411Z,1009.10
2022-12-25T06:07:49.377Z,1009.28
2022-12-25T06:08:49.333Z,1009.26
2022-12-25T06:09:49.294Z,1009.20
2022-12-25T06:10:49.260Z,1009.19
2022-12-25T06:11:49.211Z,1008.83
2022-12-25T06:12:49.168Z,1008.81
2022-12-25T06:13:49.125Z,1008.79
2022-12-25T06:14:49.088Z,1008.78
2022-12-25T06:15:49.043Z,1008.81
2022-12-25T06:16:49.036Z,1008.80
2022-12-25T06:17:48.961Z,1008.82
2022-12-25T06:18:48.918Z,1008.79
2022-12-25T06:19:48.875Z,1008.86
2022-12-25T06:20:48.834Z,1008.84
2022-12-25T06:21:48.793Z,1008.85
2022-12-25T06:22:48.773Z,1009.21
2022-12-25T06:23:48.784Z,1009.19
2022-12-25T06:24:48.667Z,1008.86
2022-12-25T06:25:48.628Z,1008.80
2022-12-25T06:26:48.582Z,1008.75
2022-12-25T06:27:48.559Z,1009.05
2022-12-25T06:28:48.506Z,1008.74
2022-12-25T06:29:48.461Z,1008.69
2022-12-25T06:30:48.425Z,1008.96
2022-12-25T06:31:48.430Z,1008.97
2022-12-25T06:32:48.331Z,1008.92
2022-12-25T06:33:48.320Z,1008.94
2022-12-25T06:34:48.268Z,1008.85
2022-12-25T06:35:48.211Z,1008.50
2022-12-25T06:36:48.170Z,1008.80
2022-12-25T06:37:48.128Z,1008.47
2022-12-25T06:38:48.088Z,1008.60
2022-12-25T06:39:48.074Z,1008.45
2022-12-25T06:40:48.007Z,1008.42
2022-12-25T06:41:47.975Z,1008.45
2022-12-25T06:42:47.912Z,1008.45
2022-12-25T06:43:47.882Z,1008.42
2022-12-25T06:44:47.835Z,1008.55
2022-12-25T06:45:47.834Z,1008.50
2022-12-25T06:46:47.749Z,1008.35
2022-12-25T06:47:47.723Z,1008.66
2022-12-25T06:48:47.695Z,1008.63
2022-12-25T06:49:47.626Z,1008.32
2022-12-25T06:50:47.589Z,1008.73
2022-12-25T06:51:47.549Z,1008.55
2022-12-25T06:52:47.505Z,1008.39
2022-12-25T06:53:47.472Z,1008.72
2022-12-25T06:54:47.418Z,1008.70
2022-12-25T06:55:47.377Z,1008.34
2022-12-25T06:56:47.346Z,1008.38
2022-12-25T06:57:47.306Z,1008.70
2022-12-25T06:58:47.250Z,1008.39
2022-12-25T06:59:52.989Z,1008.42
2022-12-25T07:00:47.220Z,1008.79
2022-12-25T07:01:47.316Z,1008.81
2022-12-25T07:02:47.194Z,1008.59
2022-12-25T07:03:47.049Z,1008.52
2022-12-25T07:04:47.021Z,1008.47
2022-12-25T07:05:46.973Z,1008.40
2022-12-25T07:06:46.918Z,1008.37
2022-12-25T07:07:46.888Z,1008.63
2022-12-25T07:08:46.844Z,1008.56
2022-12-25T07:09:46.820Z,1008.51
2022-12-25T07:10:46.754Z,1008.47
2022-12-25T07:11:46.727Z,1008.24
2022-12-25T07:12:46.675Z,1008.14
2022-12-25T07:13:46.639Z,1008.15
2022-12-25T07:14:46.590Z,1008.47
2022-12-25T07:15:46.562Z,1008.48
2022-12-25T07:16:46.556Z,1008.49
2022-12-25T07:17:46.470Z,1008.40
2022-12-25T07:18:46.440Z,1008.42
2022-12-25T07:19:46.390Z,1008.41
2022-12-25T07:20:46.343Z,1008.34
2022-12-25T07:21:46.319Z,1007.89
2022-12-25T07:22:46.260Z,1007.83
2022-12-25T07:23:46.259Z,1007.81
2022-12-25T07:24:46.181Z,1007.79
2022-12-25T07:25:46.140Z,1008.09
2022-12-25T07:26:46.109Z,1008.11
2022-12-25T07:27:46.079Z,1007.81
2022-12-25T07:28:46.015Z,1008.11
2022-12-25T07:29:45.977Z,1007.78
2022-12-25T07:30:45.936Z,1007.87
2022-12-25T07:31:45.898Z,1007.80
2022-12-25T07:32:50.101Z,1008.15
2022-12-25T07:33:45.810Z,1007.87
2022-12-25T07:34:45.767Z,1007.86
2022-12-25T07:35:45.732Z,1008.19
2022-12-25T07:36:45.685Z,1008.13
2022-12-25T07:37:45.652Z,1008.16
2022-12-25T07:38:45.615Z,1007.89
2022-12-25T07:39:45.565Z,1007.93
2022-12-25T07:40:45.523Z,1008.15
2022-12-25T07:41:45.494Z,1008.11
2022-12-25T07:42:45.441Z,1008.06
2022-12-25T07:43:45.400Z,1007.97
2022-12-25T07:44:45.354Z,1007.60
2022-12-25T07:45:45.370Z,1007.58
2022-12-25T07:46:45.306Z,1007.54
2022-12-25T07:47:45.246Z,1007.51
2022-12-25T07:48:45.187Z,1007.42
2022-12-25T07:49:45.153Z,1007.42
2022-12-25T07:50:45.807Z,1007.41
2022-12-25T07:51:45.078Z,1007.41
2022-12-25T07:52:45.025Z,1007.39
2022-12-25T07:53:44.993Z,1007.38
2022-12-25T07:54:44.939Z,1007.43
2022-12-25T07:55:44.910Z,1007.53
2022-12-25T07:56:44.867Z,1007.85
2022-12-25T07:57:44.818Z,1007.66
2022-12-25T07:58:44.777Z,1007.71
2022-12-25T07:59:44.744Z,1007.73
2022-12-25T08:00:44.729Z,1007.74
2022-12-25T08:01:44.843Z,1007.72
2022-12-25T08:02:45.043Z,1007.79
2022-12-25T08:03:44.667Z,1007.74
2022-12-25T08:04:44.527Z,1007.78
2022-12-25T08:05:44.489Z,1008.10
2022-12-25T08:06:44.444Z,1008.08
2022-12-25T08:07:44.406Z,1007.78
2022-12-25T08:08:44.363Z,1008.10
2022-12-25T08:09:44.334Z,1008.01
2022-12-25T08:10:44.277Z,1007.97
2022-12-25T08:11:44.253Z,1007.66
2022-12-25T08:12:44.195Z,1007.66
2022-12-25T08:13:44.156Z,1007.62
2022-12-25T08:14:44.125Z,1007.58
2022-12-25T08:15:44.081Z,1007.93
2022-12-25T08:16:44.068Z,1007.87
2022-12-25T08:17:43.991Z,1007.91
2022-12-25T08:18:43.947Z,1007.92
2022-12-25T08:19:43.915Z,1007.64
2022-12-25T08:20:43.881Z,1007.59
2022-12-25T08:21:43.826Z,1007.72
2022-12-25T08:22:43.799Z,1007.71
2022-12-25T08:23:43.760Z,1008.08
2022-12-25T08:24:43.713Z,1007.75
2022-12-25T08:25:43.671Z,1007.82
2022-12-25T08:26:43.618Z,1007.88
2022-12-25T08:27:43.589Z,1007.86
2022-12-25T08:28:43.592Z,1007.77
2022-12-25T08:29:43.492Z,1007.70
2022-12-25T08:30:43.487Z,1007.67
2022-12-25T08:31:46.449Z,1007.47
2022-12-25T08:32:43.373Z,1007.71
2022-12-25T08:33:43.371Z,1007.26
2022-12-25T08:34:43.312Z,1007.56
2022-12-25T08:35:43.248Z,1007.55
2022-12-25T08:36:43.207Z,1007.55
2022-12-25T08:37:43.162Z,1007.19
2022-12-25T08:38:43.173Z,1007.22
2022-12-25T08:39:43.081Z,1007.21
2022-12-25T08:40:43.052Z,1007.24
2022-12-25T08:41:43.002Z,1007.41
2022-12-25T08:42:42.962Z,1007.53
2022-12-25T08:43:42.938Z,1007.70
2022-12-25T08:44:42.880Z,1007.82
2022-12-25T08:45:42.854Z,1007.83
2022-12-25T08:46:42.877Z,1007.91
2022-12-25T08:47:42.776Z,1007.95
2022-12-25T08:48:42.744Z,1008.01
2022-12-25T08:49:42.699Z,1008.15
2022-12-25T08:50:42.698Z,1008.17
2022-12-25T08:51:42.600Z,1008.22
2022-12-25T08:52:42.551Z,1008.38
2022-12-25T08:53:42.507Z,1008.22
2022-12-25T08:54:42.469Z,1008.13
2022-12-25T08:55:42.438Z,1008.42
2022-12-25T08:56:42.396Z,1008.08
2022-12-25T08:57:42.343Z,1008.39
2022-12-25T08:58:42.301Z,1008.06
2022-12-25T08:59:42.261Z,1007.96
2022-12-25T09:00:42.227Z,1008.26
2022-12-25T09:01:42.264Z,1008.22
2022-12-25T09:02:42.321Z,1008.00
2022-12-25T09:03:42.287Z,1007.86
2022-12-25T09:04:42.056Z,1007.79
2022-12-25T09:05:42.051Z,1008.13
2022-12-25T09:06:41.980Z,1007.70
2022-12-25T09:07:41.932Z,1007.66
2022-12-25T09:08:48.005Z,1007.96
2022-12-25T09:09:41.849Z,1007.56
2022-12-25T09:10:41.808Z,1007.54
2022-12-25T09:11:41.767Z,1007.88
2022-12-25T09:12:41.732Z,1007.60
2022-12-25T09:13:41.691Z,1007.64
2022-12-25T09:14:41.656Z,1007.99
2022-12-25T09:15:41.622Z,1007.64
2022-12-25T09:16:41.565Z,1008.00
2022-12-25T09:17:41.524Z,1007.85
2022-12-25T09:18:41.493Z,1008.03
2022-12-25T09:19:41.438Z,1007.99
2022-12-25T09:20:41.409Z,1008.07
2022-12-25T09:21:41.366Z,1007.70
2022-12-25T09:22:41.321Z,1007.76
2022-12-25T09:23:41.311Z,1008.16
2022-12-25T09:24:41.237Z,1007.93
2022-12-25T09:25:41.192Z,1008.15
2022-12-25T09:26:41.189Z,1008.21
2022-12-25T09:27:41.123Z,1007.94
2022-12-25T09:28:46.623Z,1008.29
2022-12-25T09:29:41.025Z,1008.03
2022-12-25T09:30:41.007Z,1008.09
2022-12-25T09:31:40.948Z,1008.20
2022-12-25T09:32:40.920Z,1008.48
2022-12-25T09:33:40.872Z,1008.46
2022-12-25T09:34:40.821Z,1008.24
2022-12-25T09:35:40.777Z,1008.12
2022-12-25T09:36:40.741Z,1008.17
2022-12-25T09:37:40.701Z,1008.15
2022-12-25T09:38:40.690Z,1008.10
2022-12-25T09:39:46.140Z,1008.11
2022-12-25T09:40:40.578Z,1008.13
2022-12-25T09:41:40.531Z,1008.49
2022-12-25T09:42:40.490Z,1008.20
2022-12-25T09:43:40.446Z,1008.19
2022-12-25T09:44:40.435Z,1008.15
2022-12-25T09:45:40.381Z,1008.48
2022-12-25T09:46:40.418Z,1008.46
2022-12-25T09:47:40.288Z,1008.23
2022-12-25T09:48:40.257Z,1008.56
2022-12-25T09:49:40.204Z,1008.53
2022-12-25T09:50:40.166Z,1008.55
2022-12-25T09:51:40.132Z,1008.55
2022-12-25T09:52:40.088Z,1008.59
2022-12-25T09:53:40.065Z,1008.64
2022-12-25T09:54:40.003Z,1008.60
2022-12-25T09:55:39.956Z,1008.24
2022-12-25T09:56:39.924Z,1008.64
2022-12-25T09:57:39.861Z,1008.60
2022-12-25T09:58:39.832Z,1008.61
2022-12-25T09:59:39.790Z,1008.57
2022-12-25T10:00:39.743Z,1008.53
2022-12-25T10:01:39.783Z,1008.33
2022-12-25T10:02:39.944Z,1008.04
2022-12-25T10:03:39.740Z,1008.05
2022-12-25T10:04:41.087Z,1008.01
2022-12-25T10:05:39.530Z,1008.30
2022-12-25T10:06:39.497Z,1007.92
2022-12-25T10:07:39.461Z,1007.89
2022-12-25T10:08:39.418Z,1007.90
2022-12-25T10:09:39.368Z,1007.97
2022-12-25T10:10:39.343Z,1007.98
2022-12-25T10:11:39.294Z,1007.98
2022-12-25T10:12:39.254Z,1008.00
2022-12-25T10:13:39.210Z,1008.04
2022-12-25T10:14:39.172Z,1007.97
2022-12-25T10:15:45.074Z,1007.94
2022-12-25T10:16:39.198Z,1008.21
2022-12-25T10:17:39.070Z,1008.16
2022-12-25T10:18:38.994Z,1007.71
2022-12-25T10:19:38.950Z,1007.99
2022-12-25T10:20:38.925Z,1007.55
2022-12-25T10:21:39.352Z,1007.83
2022-12-25T10:22:38.836Z,1007.85
2022-12-25T10:23:38.794Z,1007.85
2022-12-25T10:24:38.745Z,1007.81
2022-12-25T10:25:38.705Z,1007.52
2022-12-25T10:26:38.673Z,1007.74
2022-12-25T10:27:38.625Z,1007.78
2022-12-25T10:28:38.590Z,1007.42
2022-12-25T10:29:38.541Z,1007.43
2022-12-25T10:30:38.500Z,1007.78
2022-12-25T10:31:38.490Z,1007.79
2022-12-25T10:32:38.417Z,1007.45
2022-12-25T10:33:38.381Z,1007.47
2022-12-25T10:34:38.329Z,1007.71
2022-12-25T10:35:38.294Z,1007.44
2022-12-25T10:36:38.253Z,1007.38
2022-12-25T10:37:38.203Z,1007.41
2022-12-25T10:38:38.166Z,1007.42
2022-12-25T10:39:44.045Z,1007.45
2022-12-25T10:40:38.081Z,1007.78
2022-12-25T10:41:38.055Z,1007.72
2022-12-25T10:42:38.000Z,1007.66
2022-12-25T10:43:37.954Z,1007.61
2022-12-25T10:44:37.924Z,1007.26
2022-12-25T10:45:37.871Z,1007.24
2022-12-25T10:46:37.941Z,1007.22
2022-12-25T10:47:37.802Z,1007.26
2022-12-25T10:48:37.767Z,1007.57
2022-12-25T10:49:37.713Z,1007.60
2022-12-25T10:50:37.678Z,1007.22
2022-12-25T10:51:37.632Z,1007.58
2022-12-25T10:52:37.601Z,1007.21
2022-12-25T10:53:37.543Z,1007.21
2022-12-25T10:54:37.533Z,1007.20
2022-12-25T10:55:37.462Z,1007.18
2022-12-25T10:56:37.417Z,1007.54
2022-12-25T10:57:37.375Z,1007.17
2022-12-25T10:58:37.347Z,1007.36
2022-12-25T10:59:37.293Z,1007.37
2022-12-25T11:00:37.252Z,1007.53
2022-12-25T11:01:37.320Z,1007.20
2022-12-25T11:02:37.438Z,1007.43
2022-12-25T11:03:37.168Z,1007.09
2022-12-25T11:04:37.097Z,1007.09
2022-12-25T11:05:37.058Z,1007.07
2022-12-25T11:06:37.012Z,1007.09
2022-12-25T11:07:36.959Z,1007.40
2022-12-25T11:08:36.926Z,1007.31
2022-12-25T11:09:36.884Z,1007.29
2022-12-25T11:10:36.875Z,1007.09
2022-12-25T11:11:36.793Z,1007.15
2022-12-25T11:12:36.758Z,1007.07
2022-12-25T11:13:36.708Z,1006.97
2022-12-25T11:14:36.674Z,1006.82
2022-12-25T11:15:36.697Z,1007.19
2022-12-25T11:16:36.636Z,1006.83
2022-12-25T11:17:36.548Z,1006.84
2022-12-25T11:18:36.507Z,1006.88
2022-12-25T11:19:36.462Z,1007.17
2022-12-25T11:20:36.430Z,1007.17
2022-12-25T11:21:36.395Z,1007.07
2022-12-25T11:22:36.344Z,1006.62
2022-12-25T11:23:36.305Z,1006.59
2022-12-25T11:24:36.255Z,1006.55
2022-12-25T11:25:36.222Z,1006.53
2022-12-25T11:26:36.181Z,1006.58
2022-12-25T11:27:36.140Z,1006.77
2022-12-25T11:28:36.091Z,1006.68
2022-12-25T11:29:36.068Z,1006.27
2022-12-25T11:30:36.007Z,1006.20
2022-12-25T11:31:36.051Z,1006.09
2022-12-25T11:32:35.933Z,1006.07
2022-12-25T11:33:35.897Z,1005.97
2022-12-25T11:34:35.854Z,1006.22
2022-12-25T11:35:35.794Z,1006.26
2022-12-25T11:36:35.763Z,1005.96
2022-12-25T11:37:35.721Z,1006.00
2022-12-25T11:38:35.681Z,1005.83
2022-12-25T11:39:35.654Z,1006.15
2022-12-25T11:40:35.608Z,1005.77
2022-12-25T11:41:35.584Z,1005.94
2022-12-25T11:42:35.510Z,1006.04
2022-12-25T11:43:35.466Z,1005.69
2022-12-25T11:44:35.468Z,1005.74
2022-12-25T11:45:35.395Z,1006.09
2022-12-25T11:46:35.400Z,1005.76
2022-12-25T11:47:35.340Z,1005.85
2022-12-25T11:48:35.279Z,1005.76
2022-12-25T11:49:35.213Z,1005.76
2022-12-25T11:50:35.193Z,1005.75
2022-12-25T11:51:35.140Z,1006.08
2022-12-25T11:52:35.130Z,1005.70
2022-12-25T11:53:35.119Z,1005.71
2022-12-25T11:54:35.029Z,1005.73
2022-12-25T11:55:34.974Z,1005.79
2022-12-25T11:56:34.944Z,1005.86
2022-12-25T11:57:34.895Z,1006.05
2022-12-25T11:58:34.862Z,1006.07
2022-12-25T11:59:34.822Z,1005.85
2022-12-25T12:00:34.769Z,1005.82
2022-12-25T12:01:34.773Z,1005.96
2022-12-25T12:02:34.843Z,1005.53
2022-12-25T12:03:34.673Z,1005.78
2022-12-25T12:04:41.947Z,1005.81